Time;durP1;ratioP1;P1;durP2;ratioP2;P2;SDS_P1;SDS_P2;PMS_P1;PMS_P2;Temp;Humidity;BMP_temperature;BMP_pressure;BME280_temperature;BME280_humidity;BME280_pressure;Samples;Min_cycle;Max_cycle;Signal;HPM_P1;HPM_P2
2021/06/08 00:01:20;;;;;;;7.80;5.10;;;;;;;;;;10278665;28;20102;-56
2021/06/08 00:06:18;;;;;;;5.03;4.47;;;;;;;;;;10279894;28;20084;-57
2021/06/08 00:11:17;;;;;;;6.35;5.30;;;;;;;;;;10280002;28;20048;-57
2021/06/08 00:16:15;;;;;;;8.48;4.88;;;;;;;;;;10279204;28;20077;-57
2021/06/08 00:21:14;;;;;;;7.32;4.80;;;;;;;;;;10279478;28;20481;-52
2021/06/08 00:26:12;;;;;;;6.97;5.80;;;;;;;;;;10279371;28;20079;-55
2021/06/08 00:31:10;;;;;;;9.35;5.07;;;;;;;;;;10279919;28;20085;-56
2021/06/08 00:36:10;;;;;;;7.00;5.28;;;;;;;;;;10278670;28;20076;-57
2021/06/08 00:41:11;;;;;;;5.85;5.30;;;;;;;;;;10278985;28;20049;-57
2021/06/08 00:46:09;;;;;;;5.35;4.85;;;;;;;;;;10278482;28;20410;-57
2021/06/08 00:51:09;;;;;;;6.82;5.32;;;;;;;;;;10276565;28;20045;-56
2021/06/08 00:56:07;;;;;;;5.63;5.00;;;;;;;;;;10277774;28;20069;-57
2021/06/08 01:01:06;;;;;;;5.90;5.30;;;;;;;;;;10277828;28;21001;-57
2021/06/08 01:06:04;;;;;;;8.57;5.88;;;;;;;;;;10277430;28;20053;-57
2021/06/08 01:11:02;;;;;;;7.35;5.65;;;;;;;;;;10275118;28;20482;-56
2021/06/08 01:16:00;;;;;;;6.57;5.43;;;;;;;;;;10275717;28;20111;-57
2021/06/08 01:21:01;;;;;;;6.05;5.43;;;;;;;;;;10275381;28;20069;-56
2021/06/08 01:25:59;;;;;;;6.90;5.38;;;;;;;;;;10275648;28;20409;-57
2021/06/08 01:30:57;;;;;;;8.43;5.95;;;;;;;;;;10275023;28;20052;-55
2021/06/08 01:35:55;;;;;;;6.28;5.25;;;;;;;;;;10291706;28;20076;-56
2021/06/08 01:40:54;;;;;;;6.20;5.53;;;;;;;;;;10293219;28;20071;-57
2021/06/08 01:45:52;;;;;;;7.95;6.18;;;;;;;;;;10297816;28;20110;-55
2021/06/08 01:50:50;;;;;;;7.90;5.70;;;;;;;;;;10296955;28;20164;-57
2021/06/08 01:55:49;;;;;;;7.97;5.97;;;;;;;;;;10275923;28;20072;-58
2021/06/08 02:00:51;;;;;;;7.53;5.50;;;;;;;;;;10275519;28;20080;-56
2021/06/08 02:05:52;;;;;;;6.50;5.70;;;;;;;;;;10286564;28;20482;-56
2021/06/08 02:10:53;;;;;;;6.47;5.80;;;;;;;;;;10284765;28;20072;-56
2021/06/08 02:15:54;;;;;;;6.53;5.55;;;;;;;;;;10295310;28;20088;-56
2021/06/08 02:20:52;;;;;;;9.50;6.10;;;;;;;;;;10274739;28;20418;-55
2021/06/08 02:25:51;;;;;;;13.45;6.18;;;;;;;;;;10275517;28;20083;-56
2021/06/08 02:30:49;;;;;;;9.05;6.82;;;;;;;;;;10274738;28;20040;-56
2021/06/08 02:35:48;;;;;;;7.63;5.47;;;;;;;;;;10274905;28;20086;-58
2021/06/08 02:40:46;;;;;;;7.93;5.85;;;;;;;;;;10275634;28;20053;-58
2021/06/08 02:45:45;;;;;;;7.80;6.95;;;;;;;;;;10281559;28;20037;-57
2021/06/08 02:50:44;;;;;;;5.78;5.28;;;;;;;;;;10294728;28;20049;-58
2021/06/08 02:55:44;;;;;;;5.93;5.38;;;;;;;;;;10293989;28;20072;-57
2021/06/08 03:00:42;;;;;;;8.68;6.05;;;;;;;;;;10276716;28;20087;-54
2021/06/08 03:05:42;;;;;;;10.05;6.60;;;;;;;;;;10289076;28;20469;-57
2021/06/08 03:10:44;;;;;;;9.45;7.18;;;;;;;;;;10296202;28;20420;-57
2021/06/08 03:15:44;;;;;;;8.27;6.25;;;;;;;;;;10293573;28;20466;-54
2021/06/08 03:20:45;;;;;;;7.03;6.43;;;;;;;;;;10292492;28;20084;-57
2021/06/08 03:25:44;;;;;;;9.32;6.75;;;;;;;;;;10306258;28;20084;-56
2021/06/08 03:30:42;;;;;;;9.18;6.15;;;;;;;;;;10300640;28;20073;-57
2021/06/08 03:35:40;;;;;;;8.77;6.60;;;;;;;;;;10290103;28;20098;-55
2021/06/08 03:40:38;;;;;;;11.23;6.30;;;;;;;;;;10279722;28;20079;-57
2021/06/08 03:45:38;;;;;;;7.70;7.00;;;;;;;;;;10276294;28;20540;-57
2021/06/08 03:50:36;;;;;;;7.45;6.75;;;;;;;;;;10278005;28;20072;-56
2021/06/08 03:55:34;;;;;;;10.13;6.95;;;;;;;;;;10277115;28;20084;-57
2021/06/08 04:00:31;;;;;;;9.73;6.72;;;;;;;;;;10278607;28;20056;-56
2021/06/08 04:05:31;;;;;;;10.23;6.13;;;;;;;;;;10278515;28;20120;-56
2021/06/08 04:10:29;;;;;;;13.20;7.20;;;;;;;;;;10278572;28;20061;-57
2021/06/08 04:15:27;;;;;;;10.07;7.63;;;;;;;;;;10278366;28;20080;-57
2021/06/08 04:20:26;;;;;;;14.45;6.82;;;;;;;;;;10278642;28;20045;-56
2021/06/08 04:25:25;;;;;;;10.93;7.65;;;;;;;;;;10277635;28;20056;-56
2021/06/08 04:30:24;;;;;;;22.42;17.85;;;;;;;;;;10277846;28;20063;-55
2021/06/08 04:35:22;;;;;;;36.28;32.63;;;;;;;;;;10276898;28;20072;-57
2021/06/08 04:40:20;;;;;;;8.82;8.02;;;;;;;;;;10277249;28;20049;-56
2021/06/08 04:45:19;;;;;;;15.65;12.38;;;;;;;;;;10277288;28;20076;-56
2021/06/08 04:50:17;;;;;;;27.55;23.92;;;;;;;;;;10275507;28;20048;-56
2021/06/08 04:55:15;;;;;;;17.10;9.63;;;;;;;;;;10272592;28;20079;-57
2021/06/08 05:00:13;;;;;;;11.35;10.02;;;;;;;;;;10273008;28;20495;-56
2021/06/08 05:05:17;;;;;;;13.00;11.73;;;;;;;;;;10273687;28;20079;-56
2021/06/08 05:10:15;;;;;;;10.27;9.27;;;;;;;;;;10276562;28;20057;-57
2021/06/08 05:15:15;;;;;;;10.13;8.73;;;;;;;;;;10276593;28;20099;-56
2021/06/08 05:20:15;;;;;;;13.32;9.52;;;;;;;;;;10276245;28;20052;-57
2021/06/08 05:25:13;;;;;;;12.68;9.77;;;;;;;;;;10276174;28;20083;-57
2021/06/08 05:30:26;;;;;;;18.63;14.15;;;;;;;;;;10252540;28;20057;-57
2021/06/08 05:35:29;;;;;;;9.70;8.73;;;;;;;;;;10275444;28;20088;-58
2021/06/08 05:40:27;;;;;;;11.30;10.27;;;;;;;;;;10275141;28;20087;-58
2021/06/08 05:45:25;;;;;;;17.27;13.85;;;;;;;;;;10275237;28;20075;-55
2021/06/08 05:50:23;;;;;;;12.38;9.85;;;;;;;;;;10274756;28;20092;-55
2021/06/08 05:55:24;;;;;;;11.52;9.93;;;;;;;;;;10274923;28;20073;-58
2021/06/08 06:00:23;;;;;;;14.68;13.15;;;;;;;;;;10275238;28;20087;-58
2021/06/08 06:05:21;;;;;;;16.45;12.18;;;;;;;;;;10274228;28;20036;-57
2021/06/08 06:10:19;;;;;;;17.80;11.07;;;;;;;;;;10273682;28;20068;-58
2021/06/08 06:15:18;;;;;;;14.80;10.77;;;;;;;;;;10273716;28;20085;-56
2021/06/08 06:20:16;;;;;;;21.30;11.05;;;;;;;;;;10274041;28;20044;-57
2021/06/08 06:25:14;;;;;;;12.75;11.38;;;;;;;;;;10273348;28;20076;-57
2021/06/08 06:30:13;;;;;;;18.52;12.23;;;;;;;;;;10273605;28;20048;-55
2021/06/08 06:35:13;;;;;;;13.40;11.98;;;;;;;;;;10273431;28;20073;-57
2021/06/08 06:40:13;;;;;;;17.13;11.77;;;;;;;;;;10273536;28;20064;-58
2021/06/08 06:45:15;;;;;;;16.92;11.98;;;;;;;;;;10273308;28;20079;-58
2021/06/08 06:50:16;;;;;;;12.40;9.20;;;;;;;;;;10277525;28;20076;-62
2021/06/08 06:55:14;;;;;;;11.32;8.77;;;;;;;;;;10281417;28;20084;-62
2021/06/08 07:00:12;;;;;;;16.27;10.23;;;;;;;;;;10280446;28;20103;-62
2021/06/08 07:05:12;;;;;;;14.20;8.98;;;;;;;;;;10280473;28;20041;-62
2021/06/08 07:10:13;;;;;;;14.02;8.30;;;;;;;;;;10280309;28;20041;-62
2021/06/08 07:15:11;;;;;;;10.50;9.50;;;;;;;;;;10280508;28;20088;-62
2021/06/08 07:20:11;;;;;;;22.95;9.27;;;;;;;;;;10280152;28;20048;-62
2021/06/08 07:25:09;;;;;;;9.45;7.43;;;;;;;;;;10279612;28;20068;-62
2021/06/08 07:30:09;;;;;;;13.73;8.77;;;;;;;;;;10280306;28;20049;-62
2021/06/08 07:35:10;;;;;;;13.10;6.95;;;;;;;;;;10277953;28;20053;-63
2021/06/08 07:40:09;;;;;;;9.95;6.93;;;;;;;;;;10279602;28;20099;-62
2021/06/08 07:45:09;;;;;;;7.78;6.88;;;;;;;;;;10279234;28;20056;-62
2021/06/08 07:50:08;;;;;;;10.80;7.03;;;;;;;;;;10279054;28;20092;-62
2021/06/08 07:55:07;;;;;;;12.30;9.20;;;;;;;;;;10278803;28;20077;-62
2021/06/08 08:00:06;;;;;;;10.13;9.05;;;;;;;;;;10279204;28;20048;-61
2021/06/08 08:05:13;;;;;;;9.53;8.73;;;;;;;;;;10290101;28;20053;-61
2021/06/08 08:10:12;;;;;;;9.70;8.85;;;;;;;;;;10278261;28;20076;-62
2021/06/08 08:15:10;;;;;;;10.68;9.65;;;;;;;;;;10277966;28;20502;-61
2021/06/08 08:20:10;;;;;;;14.65;9.95;;;;;;;;;;10278752;28;20088;-61
2021/06/08 08:25:08;;;;;;;9.40;8.52;;;;;;;;;;10277617;28;20075;-63
2021/06/08 08:30:07;;;;;;;19.95;11.93;;;;;;;;;;10277635;28;20517;-63
2021/06/08 08:35:05;;;;;;;9.68;8.68;;;;;;;;;;10277247;28;20481;-61
2021/06/08 08:40:05;;;;;;;10.05;8.60;;;;;;;;;;10277374;28;20080;-62
2021/06/08 08:45:04;;;;;;;15.93;14.32;;;;;;;;;;10276957;28;20080;-63
2021/06/08 08:50:02;;;;;;;10.32;7.85;;;;;;;;;;10277052;28;20517;-62
2021/06/08 08:55:00;;;;;;;11.05;9.82;;;;;;;;;;10276536;28;20552;-62
2021/06/08 09:00:03;;;;;;;12.77;10.30;;;;;;;;;;10277586;28;20502;-61
2021/06/08 09:05:08;;;;;;;12.25;8.48;;;;;;;;;;10276468;28;20418;-62
2021/06/08 09:10:09;;;;;;;12.60;8.85;;;;;;;;;;10275942;28;20081;-62
2021/06/08 09:15:09;;;;;;;12.25;9.52;;;;;;;;;;10275488;28;20096;-62
2021/06/08 09:20:07;;;;;;;14.48;9.35;;;;;;;;;;10275996;28;20089;-62
2021/06/08 09:25:07;;;;;;;11.77;9.27;;;;;;;;;;10275539;28;20076;-62
2021/06/08 09:30:13;;;;;;;13.57;9.45;;;;;;;;;;10275259;28;20044;-62
2021/06/08 09:35:13;;;;;;;10.93;9.77;;;;;;;;;;10273735;28;20087;-62
2021/06/08 09:40:18;;;;;;;16.98;11.88;;;;;;;;;;10275515;28;20076;-62
2021/06/08 09:45:19;;;;;;;14.90;9.30;;;;;;;;;;10274908;28;20079;-62
2021/06/08 09:50:29;;;;;;;16.95;8.73;;;;;;;;;;10274394;28;20076;-62
2021/06/08 09:55:47;;;;;;;12.82;9.38;;;;;;;;;;10274917;28;20084;-62
2021/06/08 10:01:02;;;;;;;9.32;6.00;;;;;;;;;;10274695;28;20068;-61
2021/06/08 10:06:05;;;;;;;7.10;4.90;;;;;;;;;;10274259;28;20053;-61
2021/06/08 10:11:03;;;;;;;6.47;4.85;;;;;;;;;;10274797;28;20052;-61
2021/06/08 10:16:04;;;;;;;8.13;6.18;;;;;;;;;;10273860;28;20693;-62
2021/06/08 10:21:03;;;;;;;10.07;5.55;;;;;;;;;;10274170;28;20073;-61
2021/06/08 10:26:04;;;;;;;7.53;5.60;;;;;;;;;;10285936;28;20052;-62
2021/06/08 10:31:03;;;;;;;9.15;3.40;;;;;;;;;;10287332;28;20465;-61
2021/06/08 10:36:23;;;;;;;5.63;5.13;;;;;;;;;;10286962;28;20093;-61
2021/06/08 10:41:22;;;;;;;5.53;4.82;;;;;;;;;;10287224;28;20045;-61
2021/06/08 10:46:24;;;;;;;24.08;21.60;;;;;;;;;;10286815;28;20072;-61
2021/06/08 10:51:22;;;;;;;6.57;4.97;;;;;;;;;;10287243;28;20052;-61
2021/06/08 10:56:23;;;;;;;4.38;3.35;;;;;;;;;;10287293;28;20462;-60
2021/06/08 11:01:42;;;;;;;5.32;4.28;;;;;;;;;;10287247;28;20048;-62
2021/06/08 11:06:46;;;;;;;8.40;4.20;;;;;;;;;;10287109;28;20052;-62
2021/06/08 11:11:43;;;;;;;;;;;;;;;;;;10287356;28;20496;-62
2021/06/08 11:16:56;;;;;;;5.10;3.58;;;;;;;;;;10286755;28;19956;-62
2021/06/08 11:21:56;;;;;;;10.43;6.47;;;;;;;;;;10287041;28;20077;-62
2021/06/08 11:26:54;;;;;;;6.07;5.47;;;;;;;;;;10286973;28;20059;-62
2021/06/08 11:31:53;;;;;;;10.95;8.63;;;;;;;;;;10286997;28;20084;-62
2021/06/08 11:36:51;;;;;;;8.13;4.88;;;;;;;;;;10281170;28;20077;-62
2021/06/08 11:41:53;;;;;;;11.27;4.28;;;;;;;;;;10280061;28;20045;-61
2021/06/08 11:46:58;;;;;;;4.53;4.00;;;;;;;;;;10279702;28;20041;-62
2021/06/08 11:52:17;;;;;;;9.10;4.15;;;;;;;;;;10277856;28;20052;-61
2021/06/08 11:57:31;;;;;;;5.38;4.65;;;;;;;;;;10279178;28;20077;-62
2021/06/08 12:02:32;;;;;;;5.38;4.18;;;;;;;;;;10279297;28;20478;-62
2021/06/08 12:07:40;;;;;;;8.75;5.05;;;;;;;;;;10278328;28;20091;-62
2021/06/08 12:12:44;;;;;;;8.82;5.82;;;;;;;;;;10278732;28;20513;-62
2021/06/08 12:17:44;;;;;;;5.15;3.95;;;;;;;;;;10277869;28;20490;-61
2021/06/08 12:22:42;;;;;;;12.25;3.28;;;;;;;;;;10278508;28;20044;-61
2021/06/08 12:27:41;;;;;;;6.60;3.17;;;;;;;;;;10278119;28;20037;-62
2021/06/08 12:32:40;;;;;;;7.43;2.88;;;;;;;;;;10278184;28;20084;-61
2021/06/08 12:37:39;;;;;;;5.55;3.88;;;;;;;;;;10277817;28;20526;-61
2021/06/08 12:42:37;;;;;;;4.75;4.05;;;;;;;;;;10276949;28;20108;-62
2021/06/08 12:47:36;;;;;;;4.15;3.58;;;;;;;;;;10276219;28;20040;-63
2021/06/08 12:52:33;;;;;;;5.25;2.55;;;;;;;;;;10276348;28;20060;-63
2021/06/08 12:57:33;;;;;;;3.00;2.70;;;;;;;;;;10277359;28;20076;-63
2021/06/08 13:02:34;;;;;;;6.05;2.80;;;;;;;;;;10277313;28;20080;-62
2021/06/08 13:07:34;;;;;;;2.55;2.35;;;;;;;;;;10276605;28;20080;-62
2021/06/08 13:12:41;;;;;;;2.60;2.38;;;;;;;;;;10276502;28;20041;-61
2021/06/08 13:17:39;;;;;;;5.60;2.78;;;;;;;;;;10276362;28;20092;-63
2021/06/08 13:22:37;;;;;;;7.65;3.08;;;;;;;;;;10276145;28;20084;-63
2021/06/08 13:27:40;;;;;;;4.55;3.35;;;;;;;;;;10276086;28;20045;-62
2021/06/08 13:32:39;;;;;;;8.25;3.70;;;;;;;;;;10275936;28;20049;-62
2021/06/08 13:37:38;;;;;;;10.43;3.95;;;;;;;;;;10275315;28;20083;-62
2021/06/08 13:42:35;;;;;;;8.07;3.95;;;;;;;;;;10275434;28;20068;-62
2021/06/08 13:47:34;;;;;;;7.47;4.53;;;;;;;;;;10274603;28;20080;-62
2021/06/08 13:53:04;;;;;;;9.05;3.75;;;;;;;;;;10275354;28;20510;-62
2021/06/08 14:03:21;;;;;;;8.85;4.55;;;;;;;;;;10274986;28;20077;-63
2021/06/08 14:08:21;;;;;;;7.57;4.60;;;;;;;;;;10274288;28;20048;-63
2021/06/08 14:13:25;;;;;;;8.95;4.30;;;;;;;;;;10274634;28;20079;-62
2021/06/08 14:18:23;;;;;;;6.78;4.28;;;;;;;;;;10273922;28;20099;-63
2021/06/08 14:23:23;;;;;;;8.15;3.72;;;;;;;;;;10273809;28;20048;-63
2021/06/08 14:28:21;;;;;;;7.20;3.85;;;;;;;;;;10274616;28;20065;-62
2021/06/08 14:33:19;;;;;;;5.88;3.95;;;;;;;;;;10274407;28;20060;-62
2021/06/08 14:38:17;;;;;;;4.32;3.35;;;;;;;;;;10290906;28;20087;-61
2021/06/08 14:43:16;;;;;;;3.55;2.92;;;;;;;;;;10294861;28;20080;-62
2021/06/08 14:48:14;;;;;;;6.97;3.35;;;;;;;;;;10290561;28;20080;-63
2021/06/08 14:53:12;;;;;;;4.03;3.38;;;;;;;;;;10308821;28;20060;-63
2021/06/08 14:58:10;;;;;;;6.00;4.18;;;;;;;;;;10283764;28;20084;-62
2021/06/08 15:03:09;;;;;;;12.98;9.18;;;;;;;;;;10289183;28;20434;-61
2021/06/08 15:08:07;;;;;;;16.48;13.30;;;;;;;;;;10292592;28;20099;-62
2021/06/08 15:13:05;;;;;;;15.52;9.13;;;;;;;;;;10306273;28;20072;-62
2021/06/08 15:18:03;;;;;;;13.80;7.45;;;;;;;;;;10302227;28;20118;-62
2021/06/08 15:23:03;;;;;;;8.40;3.28;;;;;;;;;;10299872;28;20075;-62
2021/06/08 15:28:02;;;;;;;4.97;4.15;;;;;;;;;;10302391;28;20065;-63
2021/06/08 15:33:00;;;;;;;10.85;5.75;;;;;;;;;;10292775;28;20049;-62
2021/06/08 15:37:58;;;;;;;5.85;4.38;;;;;;;;;;10300384;28;20064;-61
2021/06/08 15:42:57;;;;;;;8.13;4.18;;;;;;;;;;10300015;28;20433;-62
2021/06/08 15:47:55;;;;;;;5.28;4.63;;;;;;;;;;10301686;28;20041;-65
2021/06/08 15:52:58;;;;;;;8.90;5.13;;;;;;;;;;10302237;28;20413;-62
2021/06/08 15:57:59;;;;;;;7.95;4.93;;;;;;;;;;10299488;28;20068;-62
2021/06/08 16:02:57;;;;;;;6.10;3.88;;;;;;;;;;10300592;28;20064;-63
2021/06/08 16:07:55;;;;;;;6.53;4.82;;;;;;;;;;10299357;28;20059;-63
2021/06/08 16:12:53;;;;;;;7.93;4.40;;;;;;;;;;10300698;28;20044;-63
2021/06/08 16:17:52;;;;;;;9.88;3.40;;;;;;;;;;10299504;28;20080;-62
2021/06/08 16:22:55;;;;;;;4.00;3.55;;;;;;;;;;10297907;28;20520;-63
2021/06/08 16:27:53;;;;;;;7.10;3.97;;;;;;;;;;10299279;28;20068;-62
2021/06/08 16:32:52;;;;;;;9.32;3.30;;;;;;;;;;10293504;28;20499;-63
2021/06/08 16:37:53;;;;;;;4.15;2.88;;;;;;;;;;10308706;28;20075;-63
2021/06/08 16:42:51;;;;;;;8.52;5.15;;;;;;;;;;10316023;28;20071;-64
2021/06/08 16:47:49;;;;;;;9.00;3.33;;;;;;;;;;10317763;28;20068;-64
2021/06/08 16:58:05;;;;;;;5.03;4.53;;;;;;;;;;10297547;28;20083;-63
2021/06/08 17:03:03;;;;;;;4.65;4.25;;;;;;;;;;10285092;28;20069;-65
2021/06/08 17:08:02;;;;;;;4.70;4.13;;;;;;;;;;10285414;28;20073;-63
2021/06/08 17:13:00;;;;;;;5.28;4.68;;;;;;;;;;10294729;28;20077;-63
2021/06/08 17:17:58;;;;;;;14.05;10.52;;;;;;;;;;10284710;28;20076;-63
2021/06/08 17:22:57;;;;;;;6.03;3.60;;;;;;;;;;10278986;28;20065;-63
2021/06/08 17:27:56;;;;;;;4.78;4.30;;;;;;;;;;10277458;28;20490;-64
2021/06/08 17:32:54;;;;;;;8.10;4.63;;;;;;;;;;10277023;28;20174;-63
2021/06/08 17:37:52;;;;;;;5.07;4.38;;;;;;;;;;10296977;28;20088;-63
2021/06/08 17:42:50;;;;;;;6.55;3.85;;;;;;;;;;10299688;28;20072;-64
2021/06/08 17:47:50;;;;;;;7.65;5.47;;;;;;;;;;10299554;28;20044;-64
2021/06/08 17:52:49;;;;;;;3.92;3.53;;;;;;;;;;10307462;28;20041;-63
2021/06/08 17:57:48;;;;;;;4.72;3.85;;;;;;;;;;10290394;28;20515;-64
2021/06/08 18:02:46;;;;;;;4.55;3.92;;;;;;;;;;10276212;28;20107;-64
2021/06/08 18:07:45;;;;;;;7.13;4.15;;;;;;;;;;10303148;28;20071;-64
2021/06/08 18:12:44;;;;;;;6.50;3.80;;;;;;;;;;10286172;28;20091;-64
2021/06/08 18:17:42;;;;;;;9.20;5.45;;;;;;;;;;10289387;28;20085;-63
2021/06/08 18:22:41;;;;;;;14.20;5.97;;;;;;;;;;10280668;28;20460;-62
2021/06/08 18:27:40;;;;;;;8.85;6.38;;;;;;;;;;10278485;28;20081;-62
2021/06/08 18:32:38;;;;;;;4.38;3.88;;;;;;;;;;10303738;28;20041;-62
2021/06/08 18:37:36;;;;;;;5.85;3.67;;;;;;;;;;10276023;28;20084;-63
2021/06/08 18:42:35;;;;;;;8.18;4.15;;;;;;;;;;10288384;28;20422;-63
2021/06/08 18:47:34;;;;;;;13.23;5.50;;;;;;;;;;10319133;28;20357;-63
2021/06/08 18:52:32;;;;;;;8.68;4.18;;;;;;;;;;10283696;28;20075;-64
2021/06/08 18:57:30;;;;;;;7.35;4.40;;;;;;;;;;10282820;28;20107;-63
2021/06/08 19:02:27;;;;;;;7.88;4.05;;;;;;;;;;10282975;28;20075;-63
2021/06/08 19:07:27;;;;;;;9.15;5.20;;;;;;;;;;10283021;28;20044;-64
2021/06/08 19:12:25;;;;;;;8.57;5.65;;;;;;;;;;10282769;28;20080;-63
2021/06/08 19:17:22;;;;;;;15.45;8.70;;;;;;;;;;10287466;28;20095;-64
2021/06/08 19:22:20;;;;;;;12.93;8.10;;;;;;;;;;10298699;28;20076;-64
2021/06/08 19:27:20;;;;;;;17.27;6.93;;;;;;;;;;10291672;28;20068;-63
2021/06/08 19:32:18;;;;;;;4.90;3.55;;;;;;;;;;10291285;28;20041;-63
2021/06/08 19:37:16;;;;;;;5.30;4.50;;;;;;;;;;10281615;28;20076;-63
2021/06/08 19:42:14;;;;;;;9.50;5.68;;;;;;;;;;10291030;28;20079;-63
2021/06/08 19:47:13;;;;;;;4.28;3.88;;;;;;;;;;10310642;28;20080;-63
2021/06/08 19:52:11;;;;;;;6.50;4.50;;;;;;;;;;10314622;28;20072;-62
2021/06/08 19:57:09;;;;;;;5.63;4.78;;;;;;;;;;10291119;28;20049;-62
2021/06/08 20:02:07;;;;;;;5.20;4.70;;;;;;;;;;10280830;28;20080;-63
2021/06/08 20:07:07;;;;;;;7.20;4.80;;;;;;;;;;10280868;28;20083;-63
2021/06/08 20:12:07;;;;;;;5.43;4.75;;;;;;;;;;10280338;28;20041;-64
2021/06/08 20:17:10;;;;;;;7.13;5.47;;;;;;;;;;10280523;28;20049;-64
2021/06/08 20:22:09;;;;;;;5.70;4.57;;;;;;;;;;10288872;28;20555;-64
2021/06/08 20:27:08;;;;;;;11.15;6.30;;;;;;;;;;10320767;28;20041;-62
2021/06/08 20:32:06;;;;;;;6.65;4.43;;;;;;;;;;10314177;28;20037;-63
2021/06/08 20:37:04;;;;;;;5.25;4.75;;;;;;;;;;10308092;28;20076;-63
2021/06/08 20:42:04;;;;;;;7.10;4.95;;;;;;;;;;10293362;28;20080;-63
2021/06/08 20:47:01;;;;;;;7.13;4.50;;;;;;;;;;10299254;28;20488;-64
2021/06/08 20:51:59;;;;;;;4.72;4.15;;;;;;;;;;10320297;28;20051;-64
2021/06/08 20:56:58;;;;;;;5.18;4.68;;;;;;;;;;10317977;28;20076;-61
2021/06/08 21:01:58;;;;;;;5.75;5.15;;;;;;;;;;10317884;28;20076;-64
2021/06/08 21:06:56;;;;;;;7.22;4.63;;;;;;;;;;10316853;28;20083;-64
2021/06/08 21:11:54;;;;;;;7.32;4.70;;;;;;;;;;10318172;28;20068;-65
2021/06/08 21:16:52;;;;;;;8.48;4.80;;;;;;;;;;10318860;28;20446;-64
2021/06/08 21:21:51;;;;;;;4.40;4.00;;;;;;;;;;10318264;28;20497;-64
2021/06/08 21:26:49;;;;;;;7.70;4.85;;;;;;;;;;10318262;28;20040;-64
2021/06/08 21:31:47;;;;;;;5.80;5.20;;;;;;;;;;10317851;28;20726;-64
2021/06/08 21:36:45;;;;;;;7.85;5.22;;;;;;;;;;10318080;28;20067;-64
2021/06/08 21:41:45;;;;;;;6.43;5.10;;;;;;;;;;10312093;28;20083;-64
2021/06/08 21:46:43;;;;;;;6.10;4.65;;;;;;;;;;10312015;28;20080;-64
2021/06/08 21:51:41;;;;;;;5.95;5.28;;;;;;;;;;10312171;28;20523;-64
2021/06/08 21:56:39;;;;;;;6.38;5.18;;;;;;;;;;10314303;28;20072;-64
2021/06/08 22:01:38;;;;;;;7.70;5.10;;;;;;;;;;10315601;28;20072;-64
2021/06/08 22:06:36;;;;;;;7.60;5.25;;;;;;;;;;10315778;28;20067;-64
2021/06/08 22:11:34;;;;;;;8.90;6.53;;;;;;;;;;10315344;28;20051;-64
2021/06/08 22:16:31;;;;;;;11.10;5.97;;;;;;;;;;10315258;28;20057;-64
2021/06/08 22:21:31;;;;;;;5.78;5.00;;;;;;;;;;10313254;28;20053;-64
2021/06/08 22:26:29;;;;;;;5.30;4.82;;;;;;;;;;10314405;28;20051;-64
2021/06/08 22:31:27;;;;;;;11.57;6.18;;;;;;;;;;10315067;28;20071;-64
2021/06/08 22:36:25;;;;;;;5.65;4.78;;;;;;;;;;10314936;28;20086;-64
2021/06/08 22:41:24;;;;;;;6.57;4.72;;;;;;;;;;10314530;28;20079;-64
2021/06/08 22:46:22;;;;;;;7.70;5.07;;;;;;;;;;10314456;28;20071;-64
2021/06/08 22:51:20;;;;;;;4.80;4.30;;;;;;;;;;10314378;28;20080;-64
2021/06/08 22:56:18;;;;;;;6.43;4.82;;;;;;;;;;10314565;28;20079;-64
2021/06/08 23:01:34;;;;;;;9.00;5.05;;;;;;;;;;10314178;28;20525;-64
2021/06/08 23:06:33;;;;;;;6.80;5.30;;;;;;;;;;10314411;28;20076;-63
2021/06/08 23:11:30;;;;;;;6.65;5.15;;;;;;;;;;10313954;28;20037;-64
2021/06/08 23:16:30;;;;;;;7.03;5.35;;;;;;;;;;10313561;28;20063;-64
2021/06/08 23:21:28;;;;;;;7.25;4.60;;;;;;;;;;10313551;28;20076;-64
2021/06/08 23:26:29;;;;;;;6.03;4.20;;;;;;;;;;10313432;28;20083;-64
2021/06/08 23:31:27;;;;;;;6.25;4.30;;;;;;;;;;10315571;28;20075;-64
2021/06/08 23:36:26;;;;;;;7.07;4.85;;;;;;;;;;10321719;28;20032;-64
2021/06/08 23:41:24;;;;;;;8.68;4.63;;;;;;;;;;10322079;28;20441;-64
2021/06/08 23:46:22;;;;;;;4.80;4.35;;;;;;;;;;10322613;28;20437;-64
2021/06/08 23:51:20;;;;;;;8.60;6.85;;;;;;;;;;10321480;28;20528;-64
2021/06/08 23:56:19;;;;;;;6.43;4.70;;;;;;;;;;10321771;28;20053;-64
